Startpagina
METAR-TAF:

METAR-TAF

Vliegvelden :

Flughafen Saarbrücken

Saarbrücken, Duitsland

breedte: 49-13N, lengte: 007-07E, hoogte: 322 m

Actueel weer

Dit bericht is 39 minuten geleden gemaakt, om 17:50 UTC
Wind 1 kt uit variabele richting
Temperatuur 11°C
Vochtigheid 76%
Druk 1030 hPa
Zicht 10 km of meer
geen wolken onder 1500 m en geen cumulonimbus

METAR: EDDR 061750Z AUTO VRB01KT CAVOK 11/07 Q1030 NOSIG

Tijdstip: 20:29 (18:29 UTC)

Verwachting

Dit bericht is 1 uur en het 29 minuten geleden gemaakt, om 17:00 UTC
Verwachting geldig van 06 om 18 UTC tot 07 om 18 UTC
Wind 3 kt uit variabele richting
Zicht 10 km of meer
geen wolken onder 1500 m en geen cumulonimbus
Kans 40% :
Tijdelijke
van 07 om 03 UTC tot 07 om 08 UTC
Zicht: 0400 m
Gebroken wolken op 100 ft
mist
Wijzigt naar
van 07 om 09 UTC tot 07 om 12 UTC
Wind 5 kt uit het zuidwesten

TAF: EDDR 061700Z 0618/0718 VRB03KT CAVOK PROB40 TEMPO 0703/0708 0400 FG BKN001 BECMG 0709/0712 23005KT

Waarnemingen en weersverwachtingen van meer dan 4000 vliegvelden (METAR en TAF).

De beschikbare stations zijn de gele en rode punten op de kaart.

Ga met uw muis naar het station om de naam te zien.

Klik dan om waarnemingen en weersverwachtingen te zien.

kaart wijzigen: klik op de groene knoppen met een zwart kruis om in te zoomen, op de groene knop met een streepje om uit te zoomen of op de groene pijlen voor aangrenzende kaarten.


METAR-TAF: